createdAt,value
2019-04-22T00:02:05.686Z,60.40
2019-04-22T00:07:28.566Z,62.20
2019-04-22T00:18:22.446Z,61.70
2019-04-22T00:27:40.751Z,62.90
2019-04-22T00:36:41.984Z,64.10
2019-04-22T00:51:25.265Z,63.80
2019-04-22T00:59:01.497Z,62.60
2019-04-22T01:08:15.177Z,64.10
2019-04-22T01:13:24.749Z,64.40
2019-04-22T01:19:07.888Z,65.30
2019-04-22T01:24:42.171Z,66.30
2019-04-22T01:31:28.497Z,66.50
2019-04-22T01:36:42.765Z,66.40
2019-04-22T01:48:17.676Z,66.20
2019-04-22T01:54:50.454Z,66.70
2019-04-22T02:04:13.983Z,66.40
2019-04-22T02:13:15.634Z,67.70
2019-04-22T02:24:39.791Z,68.50
2019-04-22T02:30:06.083Z,69.50
2019-04-22T02:36:33.973Z,70.70
2019-04-22T02:42:14.434Z,72.20
2019-04-22T02:58:47.792Z,73.00
2019-04-22T03:04:12.911Z,73.30
2019-04-22T03:11:34.279Z,72.70
2019-04-22T03:35:41.739Z,71.80
2019-04-22T03:41:15.411Z,73.10
2019-04-22T03:52:35.111Z,75.00
2019-04-22T03:58:48.314Z,74.10
2019-04-22T04:10:35.520Z,73.30
2019-04-22T04:15:40.669Z,72.30
2019-04-22T04:27:19.504Z,76.50
2019-04-22T04:44:11.186Z,75.50
2019-04-22T04:49:52.009Z,73.20
2019-04-22T05:00:11.244Z,72.00
2019-04-22T05:08:48.807Z,71.50
2019-04-22T05:25:13.029Z,69.90
2019-04-22T05:32:39.982Z,69.40
2019-04-22T05:38:58.191Z,70.80
2019-04-22T05:44:34.679Z,68.50
2019-04-22T05:46:09.555Z,68.10
2019-04-22T05:53:14.847Z,67.10
2019-04-22T05:58:38.220Z,66.70
2019-04-22T06:04:09.758Z,66.10
2019-04-22T06:09:33.948Z,65.30
2019-04-22T06:15:23.386Z,61.60
2019-04-22T06:22:50.794Z,59.10
2019-04-22T06:28:11.834Z,55.30
2019-04-22T06:33:41.578Z,54.30
2019-04-22T06:39:26.528Z,53.20
2019-04-22T06:44:49.713Z,51.70
2019-04-22T06:50:47.545Z,54.30
2019-04-22T06:56:27.381Z,51.80
2019-04-22T07:02:06.463Z,51.50
2019-04-22T07:14:01.678Z,50.90
2019-04-22T07:19:40.842Z,50.30
2019-04-22T07:25:19.383Z,49.80
2019-04-22T07:31:06.776Z,48.60
2019-04-22T07:44:13.180Z,48.90
2019-04-22T07:49:50.836Z,45.60
2019-04-22T07:55:13.316Z,44.00
2019-04-22T08:01:42.221Z,41.20
2019-04-22T08:07:18.337Z,41.00
2019-04-22T08:12:55.794Z,37.10
2019-04-22T08:20:29.001Z,36.50
2019-04-22T08:25:42.941Z,36.20
2019-04-22T08:31:32.042Z,33.30
2019-04-22T08:37:34.324Z,33.30
2019-04-22T08:42:50.236Z,33.80
2019-04-22T08:48:01.808Z,32.70
2019-04-22T08:54:36.171Z,32.70
2019-04-22T09:00:57.198Z,32.40
2019-04-22T09:12:07.653Z,32.20
2019-04-22T09:17:49.351Z,33.10
2019-04-22T09:23:24.648Z,32.30
2019-04-22T09:28:52.322Z,31.20
2019-04-22T09:34:22.577Z,31.20
2019-04-22T09:40:01.117Z,29.90
2019-04-22T09:45:28.673Z,29.40
2019-04-22T09:51:08.679Z,30.30
2019-04-22T09:57:01.505Z,29.40
2019-04-22T10:02:25.043Z,29.40
2019-04-22T10:13:48.010Z,31.10
2019-04-22T10:19:16.850Z,29.60
2019-04-22T10:24:53.569Z,29.50
2019-04-22T10:32:17.588Z,28.70
2019-04-22T10:37:10.878Z,27.70
2019-04-22T10:41:38.951Z,28.90
2019-04-22T10:45:55.566Z,29.30
2019-04-22T10:50:02.707Z,29.50
2019-04-22T10:54:09.630Z,29.30
2019-04-22T10:58:18.199Z,28.80
2019-04-22T11:02:27.686Z,27.50
2019-04-22T11:06:56.348Z,28.70
2019-04-22T11:12:01.409Z,28.20
2019-04-22T11:18:23.217Z,27.50
2019-04-22T11:22:37.395Z,27.90
2019-04-22T11:26:52.751Z,25.30
2019-04-22T11:32:56.262Z,24.80
2019-04-22T11:36:56.814Z,26.90
2019-04-22T11:41:05.428Z,27.40
2019-04-22T11:45:19.351Z,24.80
2019-04-22T11:49:25.876Z,26.50
2019-04-22T11:53:32.176Z,27.20
2019-04-22T11:58:18.963Z,27.30
2019-04-22T12:02:29.076Z,26.80
2019-04-22T12:06:40.089Z,26.30
2019-04-22T12:11:01.936Z,24.50
2019-04-22T12:15:46.849Z,26.00
2019-04-22T12:20:14.584Z,26.00
2019-04-22T12:24:26.053Z,26.00
2019-04-22T12:28:32.987Z,25.80
2019-04-22T12:32:46.800Z,27.20
2019-04-22T12:36:54.253Z,27.00
2019-04-22T12:42:00.358Z,27.10
2019-04-22T12:46:14.445Z,26.70
2019-04-22T12:50:38.710Z,26.60
2019-04-22T12:54:57.347Z,27.30
2019-04-22T13:00:01.944Z,27.20
2019-04-22T13:04:21.255Z,27.50
2019-04-22T13:08:38.083Z,26.10
2019-04-22T13:13:00.858Z,25.20
2019-04-22T13:17:06.206Z,26.00
2019-04-22T13:21:18.594Z,26.20
2019-04-22T13:25:32.413Z,25.20
2019-04-22T13:29:51.003Z,26.90
2019-04-22T13:34:23.990Z,27.20
2019-04-22T13:39:00.734Z,25.60
2019-04-22T13:43:07.123Z,26.90
2019-04-22T13:48:11.511Z,25.90
2019-04-22T13:54:40.435Z,24.60
2019-04-22T13:59:11.482Z,25.40
2019-04-22T14:04:02.684Z,26.00
2019-04-22T14:08:22.867Z,25.60
2019-04-22T14:15:02.314Z,27.50
2019-04-22T14:19:03.467Z,25.30
2019-04-22T14:23:14.294Z,25.50
2019-04-22T14:27:55.873Z,25.70
2019-04-22T14:32:54.143Z,25.40
2019-04-22T14:37:03.592Z,25.30
2019-04-22T14:42:19.035Z,24.50
2019-04-22T14:47:53.976Z,24.00
2019-04-22T14:53:29.419Z,25.10
2019-04-22T14:58:01.181Z,26.20
2019-04-22T15:04:02.942Z,25.30
2019-04-22T15:08:15.041Z,26.60
2019-04-22T15:12:46.505Z,26.70
2019-04-22T15:18:11.405Z,26.30
2019-04-22T15:22:40.906Z,26.90
2019-04-22T15:27:14.079Z,25.80
2019-04-22T15:31:23.655Z,25.60
2019-04-22T15:35:31.367Z,25.90
2019-04-22T15:39:37.508Z,25.20
2019-04-22T15:45:41.257Z,25.90
2019-04-22T15:49:45.766Z,26.20
2019-04-22T15:54:56.228Z,25.30
2019-04-22T15:59:17.275Z,26.20
2019-04-22T16:04:54.616Z,27.10
2019-04-22T16:09:02.712Z,28.20
2019-04-22T16:13:27.372Z,27.90
2019-04-22T16:17:48.842Z,27.80
2019-04-22T16:22:19.067Z,27.50
2019-04-22T16:26:48.530Z,27.60
2019-04-22T16:31:13.469Z,28.50
2019-04-22T16:35:24.495Z,27.70
2019-04-22T16:39:34.174Z,27.70
2019-04-22T16:44:40.705Z,27.50
2019-04-22T16:48:47.641Z,27.90
2019-04-22T16:52:59.763Z,29.40
2019-04-22T16:59:02.193Z,28.30
2019-04-22T17:03:44.663Z,28.40
2019-04-22T17:08:30.705Z,29.40
2019-04-22T17:13:11.261Z,28.80
2019-04-22T17:17:37.417Z,29.10
2019-04-22T17:21:47.861Z,28.00
2019-04-22T17:26:00.806Z,28.20
2019-04-22T17:30:10.571Z,29.90
2019-04-22T17:34:18.930Z,30.40
2019-04-22T17:39:41.081Z,28.90
2019-04-22T17:45:33.897Z,29.90
2019-04-22T17:56:54.542Z,29.90
2019-04-22T18:03:41.333Z,30.60
2019-04-22T18:08:59.027Z,31.10
2019-04-22T18:16:26.263Z,32.10
2019-04-22T18:25:39.476Z,31.80
2019-04-22T18:34:49.589Z,32.20
2019-04-22T18:40:15.064Z,32.50
2019-04-22T18:47:37.667Z,32.50
2019-04-22T18:53:35.209Z,32.10
2019-04-22T19:04:16.436Z,32.10
2019-04-22T19:10:01.689Z,31.90
2019-04-22T19:15:24.441Z,31.90
2019-04-22T19:22:55.315Z,30.70
2019-04-22T19:34:03.208Z,33.10
2019-04-22T19:39:34.233Z,30.40
2019-04-22T19:44:54.764Z,31.50
2019-04-22T19:50:31.175Z,31.70
2019-04-22T20:02:00.948Z,32.10
2019-04-22T20:10:34.958Z,34.50
2019-04-22T20:15:37.481Z,34.70
2019-04-22T20:21:26.669Z,35.10
2019-04-22T20:26:50.068Z,36.20
2019-04-22T20:33:18.686Z,37.60
2019-04-22T20:38:51.092Z,38.60
2019-04-22T20:46:22.478Z,38.70
2019-04-22T20:51:58.936Z,39.40
2019-04-22T20:59:18.056Z,39.40
2019-04-22T21:04:11.518Z,40.50
2019-04-22T21:11:34.543Z,42.10
2019-04-22T21:19:02.755Z,43.60
2019-04-22T21:24:34.966Z,43.40
2019-04-22T21:30:04.732Z,43.50
2019-04-22T21:39:33.357Z,44.30
2019-04-22T21:45:14.677Z,44.90
2019-04-22T21:54:42.544Z,45.40
2019-04-22T22:01:52.843Z,45.90
2019-04-22T22:06:53.085Z,47.00
2019-04-22T22:12:33.826Z,46.90
